Time;durP1;ratioP1;P1;durP2;ratioP2;P2;SDS_P1;SDS_P2;PMS_P1;PMS_P2;Temp;Humidity;BMP_temperature;BMP_pressure;BME280_temperature;BME280_humidity;BME280_pressure;Samples;Min_cycle;Max_cycle;Signal;HPM_P1;HPM_P2
2022/12/09 05:07:22;;;;;;;5.65;4.55;;;-2.00;99.90;;;;;;5313575;23;20266;-61
2022/12/09 05:09:48;;;;;;;4.43;3.77;;;-2.00;99.90;;;;;;4975713;28;20177;-61
2022/12/09 05:12:13;;;;;;;6.63;5.70;;;-1.90;99.90;;;;;;4975622;28;20419;-61
2022/12/09 05:14:39;;;;;;;5.93;4.73;;;-1.90;99.90;;;;;;4975557;28;20473;-60
2022/12/09 05:17:06;;;;;;;13.07;4.40;;;-1.90;99.90;;;;;;4975538;28;20192;-60
2022/12/09 05:19:31;;;;;;;6.57;5.68;;;-1.90;99.90;;;;;;4975786;28;20172;-61
2022/12/09 05:21:57;;;;;;;8.13;3.70;;;-1.90;99.90;;;;;;4975521;28;20255;-61
2022/12/09 05:24:23;;;;;;;6.03;4.20;;;-1.90;99.90;;;;;;4975711;28;20168;-61
2022/12/09 05:26:48;;;;;;;6.07;4.50;;;-1.80;99.90;;;;;;4975091;28;20198;-61
2022/12/09 05:29:14;;;;;;;3.97;3.70;;;-1.80;99.90;;;;;;4975487;28;20168;-61
2022/12/09 05:31:40;;;;;;;3.00;2.80;;;-1.80;99.90;;;;;;4975283;28;20466;-61
2022/12/09 05:34:06;;;;;;;6.83;4.07;;;-1.80;99.90;;;;;;4975372;28;20531;-61
2022/12/09 05:36:31;;;;;;;5.38;3.65;;;-1.80;99.90;;;;;;4974086;28;20315;-61
2022/12/09 05:38:57;;;;;;;3.20;2.90;;;-1.80;99.90;;;;;;4975441;28;20671;-62
2022/12/09 05:41:23;;;;;;;7.97;4.63;;;-1.80;99.90;;;;;;4974972;28;20211;-62
2022/12/09 05:43:49;;;;;;;4.97;4.30;;;-1.80;99.90;;;;;;4975166;28;20179;-61
2022/12/09 05:46:15;;;;;;;6.10;4.63;;;-1.80;99.90;;;;;;4974472;28;20425;-60
2022/12/09 05:48:41;;;;;;;8.65;3.65;;;-1.80;99.90;;;;;;4975088;28;20173;-61
2022/12/09 05:51:10;;;;;;;4.47;3.93;;;-1.80;99.90;;;;;;4975110;28;20218;-60
2022/12/09 05:53:36;;;;;;;6.45;3.97;;;-1.80;99.90;;;;;;4975001;28;20552;-60
2022/12/09 05:56:02;;;;;;;8.00;5.27;;;-1.80;99.90;;;;;;4974774;28;20202;-62
2022/12/09 05:58:27;;;;;;;6.07;3.65;;;-1.80;99.90;;;;;;4974991;28;20207;-61
2022/12/09 06:00:56;;;;;;;3.47;3.20;;;-1.80;99.90;;;;;;4974678;28;20238;-60
2022/12/09 06:03:22;;;;;;;5.78;4.35;;;-1.80;99.90;;;;;;4974750;28;20211;-61
2022/12/09 06:05:48;;;;;;;7.57;4.93;;;-1.80;99.90;;;;;;4957101;28;20205;-61
2022/12/09 06:08:14;;;;;;;4.40;4.00;;;-1.70;99.90;;;;;;4975484;28;20184;-62
2022/12/09 06:10:40;;;;;;;4.28;3.88;;;-1.70;99.90;;;;;;4976095;28;20181;-61
2022/12/09 06:13:06;;;;;;;6.87;3.83;;;-1.70;99.90;;;;;;4976367;28;20177;-62
2022/12/09 06:15:33;;;;;;;3.58;3.33;;;-1.70;99.90;;;;;;4976237;28;20411;-61
2022/12/09 06:17:59;;;;;;;8.05;4.10;;;-1.60;99.90;;;;;;4975793;28;20259;-62
2022/12/09 06:20:24;;;;;;;8.40;4.50;;;-1.60;99.90;;;;;;4975433;28;20660;-61
2022/12/09 06:22:51;;;;;;;7.40;4.38;;;-1.60;99.90;;;;;;4975447;28;20232;-61
2022/12/09 06:25:17;;;;;;;8.00;4.67;;;-1.70;99.90;;;;;;4974417;28;20204;-61
2022/12/09 06:27:43;;;;;;;6.13;4.90;;;-1.60;99.90;;;;;;4974471;28;20191;-60
2022/12/09 06:30:08;;;;;;;4.20;2.67;;;-1.60;99.90;;;;;;4974958;28;20513;-64
2022/12/09 06:32:34;;;;;;;6.70;5.03;;;-1.60;99.90;;;;;;4974564;28;20259;-60
2022/12/09 06:35:00;;;;;;;3.97;3.67;;;-1.60;99.90;;;;;;4974150;28;20396;-61
2022/12/09 06:37:25;;;;;;;7.83;6.30;;;-1.60;99.90;;;;;;4974312;28;20180;-64
2022/12/09 06:39:51;;;;;;;5.17;3.77;;;-1.60;99.90;;;;;;4974357;28;20505;-64
2022/12/09 06:42:17;;;;;;;5.87;5.30;;;-1.60;99.90;;;;;;4974500;28;20237;-62
2022/12/09 06:44:43;;;;;;;10.70;5.55;;;-1.60;99.90;;;;;;4974853;28;20200;-63
2022/12/09 06:47:08;;;;;;;5.60;4.70;;;-1.50;99.90;;;;;;4974274;28;20708;-63
2022/12/09 06:49:34;;;;;;;11.40;6.57;;;-1.50;99.90;;;;;;4973471;28;20780;-63
2022/12/09 06:51:59;;;;;;;6.90;5.97;;;-1.50;99.90;;;;;;4967141;28;20176;-63
2022/12/09 06:54:25;;;;;;;6.43;5.83;;;-1.50;99.90;;;;;;4959794;28;20176;-62
2022/12/09 06:56:51;;;;;;;6.43;5.20;;;-1.40;99.90;;;;;;4959687;28;20557;-63
2022/12/09 06:59:16;;;;;;;6.33;5.73;;;-1.50;99.90;;;;;;4957539;28;20179;-62
2022/12/09 07:01:43;;;;;;;8.60;7.70;;;-1.40;99.90;;;;;;4967668;28;20200;-63
2022/12/09 07:04:10;;;;;;;5.63;4.90;;;-1.40;99.90;;;;;;4958607;28;20424;-62
2022/12/09 07:06:38;;;;;;;6.70;4.90;;;-1.50;99.90;;;;;;4962979;28;20559;-63
2022/12/09 07:09:19;;;;;;;7.20;4.63;;;-1.40;99.90;;;;;;4964659;28;20180;-63
2022/12/09 07:11:45;;;;;;;8.30;5.90;;;-1.40;99.90;;;;;;4964763;28;20169;-63
2022/12/09 07:14:12;;;;;;;7.40;4.95;;;-1.40;99.90;;;;;;4963591;28;20184;-63
2022/12/09 07:16:38;;;;;;;7.03;5.75;;;-1.40;99.90;;;;;;4945415;28;20198;-64
2022/12/09 07:19:04;;;;;;;4.80;4.40;;;-1.30;99.90;;;;;;4964621;28;20620;-63
2022/12/09 07:21:29;;;;;;;4.95;4.45;;;-1.30;99.90;;;;;;4968974;28;20471;-62
2022/12/09 07:23:58;;;;;;;5.73;4.30;;;-1.20;99.90;;;;;;4975338;28;20572;-62
2022/12/09 07:26:24;;;;;;;5.28;4.78;;;-1.20;99.90;;;;;;4993469;28;20284;-63
2022/12/09 07:28:50;;;;;;;13.60;7.27;;;-1.10;99.90;;;;;;4997205;28;20251;-63
2022/12/09 07:31:24;;;;;;;8.40;6.97;;;-1.10;99.90;;;;;;4997220;28;20648;-63
2022/12/09 07:33:50;;;;;;;8.23;6.82;;;-1.00;99.90;;;;;;4996994;28;20192;-62
2022/12/09 07:36:17;;;;;;;28.55;7.03;;;-1.00;99.90;;;;;;4996489;28;20202;-62
2022/12/09 07:38:43;;;;;;;10.80;6.68;;;-0.90;99.90;;;;;;4979540;28;20732;-61
2022/12/09 07:41:16;;;;;;;7.63;5.60;;;-0.90;99.90;;;;;;4996788;28;20282;-62
2022/12/09 07:43:42;;;;;;;10.30;7.07;;;-0.70;99.90;;;;;;4996816;28;20175;-63
2022/12/09 07:46:08;;;;;;;11.52;7.80;;;-0.50;99.90;;;;;;4978794;28;20268;-63
2022/12/09 07:48:34;;;;;;;10.30;7.63;;;-0.30;99.90;;;;;;4996616;28;20183;-63
2022/12/09 07:51:01;;;;;;;11.67;8.67;;;-0.30;99.90;;;;;;4996712;28;20676;-63
2022/12/09 07:53:27;;;;;;;8.80;6.25;;;-0.20;99.90;;;;;;4996791;28;20418;-63
2022/12/09 07:55:53;;;;;;;11.18;7.35;;;0.00;99.90;;;;;;4978474;28;20290;-63
2022/12/09 07:58:19;;;;;;;10.75;7.53;;;0.10;99.90;;;;;;4996491;28;20665;-64
2022/12/09 08:00:45;;;;;;;15.80;7.13;;;0.10;99.90;;;;;;4996476;28;20195;-64
2022/12/09 08:03:12;;;;;;;11.23;7.67;;;0.10;99.90;;;;;;4996470;28;20621;-64
2022/12/09 08:05:47;;;;;;;9.52;6.65;;;0.20;99.90;;;;;;4996109;28;20258;-65
2022/12/09 08:08:13;;;;;;;9.27;6.60;;;0.20;99.90;;;;;;4996418;28;20223;-65
2022/12/09 08:10:39;;;;;;;9.27;7.50;;;0.30;99.90;;;;;;4996272;28;20262;-65
2022/12/09 08:13:04;;;;;;;12.17;7.43;;;0.40;99.90;;;;;;4978912;28;20170;-63
2022/12/09 08:15:30;;;;;;;9.67;7.60;;;0.50;99.90;;;;;;4995570;28;20699;-64
2022/12/09 08:17:56;;;;;;;11.17;7.50;;;0.60;99.90;;;;;;4996079;28;20580;-64
2022/12/09 08:20:21;;;;;;;12.47;7.87;;;0.80;99.90;;;;;;4978226;28;20776;-61
2022/12/09 08:22:47;;;;;;;12.00;8.57;;;0.90;99.90;;;;;;4996078;28;20167;-63
2022/12/09 08:25:13;;;;;;;7.43;6.70;;;1.00;99.90;;;;;;4995769;28;20511;-60
2022/12/09 08:27:39;;;;;;;8.50;6.10;;;0.90;99.90;;;;;;4978601;28;20199;-59
2022/12/09 08:30:05;;;;;;;9.00;6.10;;;1.00;99.90;;;;;;4978654;28;20195;-60
2022/12/09 08:32:31;;;;;;;10.32;6.22;;;0.90;99.90;;;;;;4996012;28;20202;-62
2022/12/09 08:34:56;;;;;;;8.20;6.77;;;0.90;99.90;;;;;;4995355;28;20214;-61
2022/12/09 08:37:22;;;;;;;10.17;6.50;;;1.00;99.90;;;;;;4995936;28;20199;-61
2022/12/09 08:39:47;;;;;;;7.10;6.50;;;1.10;99.90;;;;;;4995878;28;20180;-60
2022/12/09 08:42:13;;;;;;;7.13;5.40;;;1.10;99.90;;;;;;4995661;28;20235;-60
2022/12/09 08:44:38;;;;;;;9.43;5.67;;;1.10;99.90;;;;;;4995573;28;20237;-60
2022/12/09 08:47:04;;;;;;;7.70;6.90;;;1.10;99.90;;;;;;4995323;28;20191;-60
2022/12/09 08:49:31;;;;;;;9.45;6.03;;;1.10;99.90;;;;;;4995746;28;20171;-61
2022/12/09 08:51:56;;;;;;;6.90;6.20;;;1.10;99.90;;;;;;4995738;28;20175;-61
2022/12/09 08:54:22;;;;;;;8.80;6.80;;;1.20;99.90;;;;;;4993489;28;20653;-61
2022/12/09 08:56:51;;;;;;;8.73;6.07;;;1.30;99.90;;;;;;4993196;28;20680;-61
2022/12/09 08:59:17;;;;;;;8.55;6.07;;;1.50;99.90;;;;;;4993558;28;20202;-61
2022/12/09 09:01:43;;;;;;;6.03;5.47;;;1.60;99.90;;;;;;4993400;28;20297;-61
2022/12/09 09:04:11;;;;;;;10.33;6.37;;;1.70;99.90;;;;;;4993447;28;20417;-61
2022/12/09 09:06:39;;;;;;;7.35;5.35;;;1.80;99.90;;;;;;4993096;28;20180;-59
2022/12/09 09:09:06;;;;;;;8.68;5.57;;;1.80;99.90;;;;;;4994519;28;20194;-60
2022/12/09 09:11:32;;;;;;;12.35;5.97;;;1.80;99.90;;;;;;4995237;28;20197;-60
2022/12/09 09:13:57;;;;;;;8.37;4.87;;;1.90;99.90;;;;;;4978353;28;20184;-62
2022/12/09 09:16:25;;;;;;;10.40;7.47;;;1.90;99.90;;;;;;4975198;28;20198;-61
2022/12/09 09:18:51;;;;;;;6.85;5.88;;;1.90;99.90;;;;;;4958405;28;20181;-60
2022/12/09 09:21:20;;;;;;;7.97;7.13;;;1.90;99.90;;;;;;4958173;28;20199;-60
2022/12/09 09:23:46;;;;;;;7.95;5.78;;;1.90;99.90;;;;;;4975708;28;20172;-61
2022/12/09 09:26:14;;;;;;;7.63;6.87;;;1.80;99.90;;;;;;4975001;28;20231;-61
2022/12/09 09:28:40;;;;;;;14.93;6.60;;;1.80;99.90;;;;;;4954803;29;20533;-60
2022/12/09 09:31:07;;;;;;;7.53;5.60;;;1.90;99.90;;;;;;4956046;29;20227;-60
2022/12/09 09:33:33;;;;;;;8.77;6.53;;;1.90;99.90;;;;;;4955050;29;20200;-60
2022/12/09 09:36:01;;;;;;;11.25;7.18;;;2.00;99.90;;;;;;4955650;28;20203;-60
2022/12/09 09:38:30;;;;;;;12.93;7.78;;;2.00;99.90;;;;;;4956145;28;20169;-60
2022/12/09 09:40:57;;;;;;;10.70;7.72;;;2.10;99.90;;;;;;4955504;28;20699;-60
2022/12/09 09:43:27;;;;;;;7.63;6.57;;;2.20;99.90;;;;;;4972049;28;20182;-59
2022/12/09 09:45:55;;;;;;;12.45;8.10;;;2.20;99.90;;;;;;4974363;28;20524;-61
2022/12/09 09:48:25;;;;;;;6.45;5.68;;;2.20;99.90;;;;;;4975017;28;20172;-61
2022/12/09 09:50:58;;;;;;;9.00;7.30;;;2.20;99.90;;;;;;4975138;28;20227;-61
2022/12/09 09:53:29;;;;;;;6.68;5.45;;;2.20;99.90;;;;;;4975062;28;20540;-60
2022/12/09 09:55:57;;;;;;;11.18;6.75;;;2.30;99.90;;;;;;4974561;28;20602;-60
2022/12/09 09:58:42;;;;;;;10.40;7.15;;;2.40;99.90;;;;;;4974727;28;20180;-60
2022/12/09 10:01:11;;;;;;;10.43;7.20;;;2.40;99.90;;;;;;4974590;28;20320;-61
2022/12/09 10:04:01;;;;;;;11.57;6.30;;;2.40;99.90;;;;;;4975044;28;20255;-60
2022/12/09 10:06:53;;;;;;;6.32;5.70;;;2.30;99.90;;;;;;4957125;28;20230;-59
2022/12/09 10:09:43;;;;;;;11.02;6.22;;;2.30;99.90;;;;;;4975100;28;20180;-60
2022/12/09 10:12:25;;;;;;;10.15;7.88;;;2.30;99.90;;;;;;4974692;28;20176;-61
2022/12/09 10:15:07;;;;;;;9.45;5.68;;;2.30;99.90;;;;;;4974551;28;20184;-60
2022/12/09 10:17:37;;;;;;;12.00;6.95;;;2.20;99.90;;;;;;4974776;28;20203;-60
2022/12/09 10:20:10;;;;;;;8.25;6.95;;;2.20;99.90;;;;;;4974695;28;20508;-61
2022/12/09 10:22:54;;;;;;;9.55;5.90;;;2.20;99.90;;;;;;4974751;28;20260;-60
2022/12/09 10:25:23;;;;;;;7.80;6.00;;;2.30;99.90;;;;;;4974749;28;20519;-61
2022/12/09 10:28:03;;;;;;;7.32;5.95;;;2.30;99.90;;;;;;4974200;28;20198;-61
2022/12/09 10:30:29;;;;;;;7.80;6.80;;;2.30;99.90;;;;;;4974744;28;20238;-61
2022/12/09 10:32:55;;;;;;;11.53;7.27;;;2.30;99.90;;;;;;4974531;28;20187;-60
2022/12/09 10:35:27;;;;;;;10.40;7.13;;;2.30;99.90;;;;;;4974360;28;20637;-61
2022/12/09 10:37:55;;;;;;;7.65;6.15;;;2.30;99.90;;;;;;4974404;28;20184;-60
2022/12/09 10:40:28;;;;;;;7.57;6.22;;;2.30;99.90;;;;;;4974385;28;20168;-61
2022/12/09 10:45:50;;;;;;;10.32;6.82;;;2.40;99.90;;;;;;4974411;28;20235;-61
2022/12/09 10:48:20;;;;;;;8.48;7.32;;;2.50;99.90;;;;;;4974488;28;20204;-60
2022/12/09 10:50:46;;;;;;;8.07;6.72;;;2.50;99.90;;;;;;4974515;28;20200;-61
2022/12/09 10:53:14;;;;;;;10.38;7.50;;;2.50;99.90;;;;;;4974475;28;20196;-59
2022/12/09 10:55:42;;;;;;;8.50;7.60;;;2.60;99.90;;;;;;4973506;28;20180;-59
2022/12/09 10:58:24;;;;;;;11.82;7.50;;;2.70;99.90;;;;;;4976022;28;20187;-60
2022/12/09 11:01:12;;;;;;;10.57;7.43;;;2.80;99.90;;;;;;4977505;28;20199;-60
2022/12/09 11:03:45;;;;;;;9.13;7.63;;;2.80;99.90;;;;;;4977450;28;20550;-60
2022/12/09 11:06:22;;;;;;;9.30;7.15;;;2.80;99.90;;;;;;4977426;28;20200;-61
2022/12/09 11:08:59;;;;;;;8.27;7.03;;;2.60;99.90;;;;;;4959837;28;20192;-60
2022/12/09 11:11:45;;;;;;;11.70;7.40;;;2.60;99.90;;;;;;4977515;28;20638;-60
2022/12/09 11:14:21;;;;;;;10.38;7.38;;;2.60;99.90;;;;;;4977717;28;20184;-61
2022/12/09 11:17:11;;;;;;;10.65;6.82;;;2.50;99.90;;;;;;4977021;28;20199;-60
2022/12/09 11:19:38;;;;;;;12.30;6.85;;;2.50;99.90;;;;;;4960245;28;20176;-60
2022/12/09 11:22:22;;;;;;;8.68;6.70;;;2.60;99.90;;;;;;4977715;28;20204;-60
2022/12/09 11:24:53;;;;;;;10.77;7.30;;;2.70;99.90;;;;;;4977450;28;20556;-61
2022/12/09 11:27:26;;;;;;;7.38;6.60;;;2.70;99.90;;;;;;4977202;28;20208;-61
2022/12/09 11:30:23;;;;;;;9.82;7.05;;;2.80;99.90;;;;;;4977644;28;20271;-61
2022/12/09 11:33:01;;;;;;;8.27;6.88;;;3.00;99.90;;;;;;4909639;28;20592;-61
2022/12/09 11:35:44;;;;;;;12.98;8.18;;;3.10;99.90;;;;;;4977200;28;20186;-60
2022/12/09 11:38:20;;;;;;;12.80;8.18;;;3.10;99.90;;;;;;4977606;28;20200;-61
2022/12/09 11:41:10;;;;;;;11.45;7.88;;;3.10;99.90;;;;;;4977287;28;20215;-61
2022/12/09 11:43:55;;;;;;;11.90;7.80;;;3.10;99.90;;;;;;4977235;28;20177;-61
2022/12/09 11:46:26;;;;;;;8.00;6.68;;;3.10;99.90;;;;;;4977030;28;20251;-60
2022/12/09 11:49:05;;;;;;;12.05;8.73;;;3.20;99.90;;;;;;4977196;28;20168;-60
2022/12/09 11:51:39;;;;;;;9.10;8.18;;;3.30;99.90;;;;;;4977328;28;20667;-61
2022/12/09 11:54:30;;;;;;;13.23;7.55;;;3.40;99.90;;;;;;4977253;28;20180;-60
2022/12/09 11:56:58;;;;;;;11.02;8.65;;;3.30;99.90;;;;;;4976617;28;20253;-61
2022/12/09 11:59:29;;;;;;;11.23;9.50;;;3.40;99.90;;;;;;4977086;28;20199;-60
2022/12/09 12:02:29;;;;;;;11.15;8.18;;;3.40;99.90;;;;;;4976692;28;20214;-60
2022/12/09 12:05:05;;;;;;;9.90;7.82;;;3.50;99.90;;;;;;4976785;28;20260;-61
2022/12/09 12:08:19;;;;;;;12.52;7.97;;;3.40;99.90;;;;;;4976926;28;20257;-61
2022/12/09 12:11:08;;;;;;;11.07;7.43;;;3.50;99.90;;;;;;4969090;28;20193;-62
2022/12/09 12:13:37;;;;;;;12.25;7.78;;;3.40;99.90;;;;;;4939148;28;20198;-60
2022/12/09 12:16:21;;;;;;;11.43;10.13;;;3.40;99.90;;;;;;4976148;28;20263;-60
2022/12/09 12:19:00;;;;;;;8.85;8.05;;;3.30;99.90;;;;;;4976702;28;20194;-60
2022/12/09 12:21:50;;;;;;;9.38;8.23;;;3.30;99.90;;;;;;4976684;28;20235;-61
2022/12/09 12:24:41;;;;;;;11.52;7.68;;;3.30;99.90;;;;;;4976036;28;20640;-60
2022/12/09 12:27:32;;;;;;;10.70;8.60;;;3.30;99.90;;;;;;4975694;28;20267;-61
2022/12/09 12:30:19;;;;;;;15.32;8.60;;;3.20;99.90;;;;;;4976395;28;20267;-61
2022/12/09 12:32:52;;;;;;;18.67;7.78;;;3.20;99.90;;;;;;4964974;28;20212;-60
2022/12/09 12:35:39;;;;;;;12.43;8.75;;;3.20;99.90;;;;;;4939446;29;20655;-60
2022/12/09 12:38:51;;;;;;;14.40;8.43;;;3.20;99.90;;;;;;4957006;29;20178;-60
2022/12/09 12:41:39;;;;;;;9.50;7.18;;;3.20;99.90;;;;;;4947063;29;20575;-60
2022/12/09 12:47:31;;;;;;;8.75;7.95;;;3.10;99.90;;;;;;4957232;28;20277;-60
2022/12/09 12:50:06;;;;;;;9.68;7.18;;;3.10;99.90;;;;;;4956860;29;20175;-61
2022/12/09 12:52:50;;;;;;;11.63;8.80;;;3.10;99.90;;;;;;4956740;29;20594;-61
2022/12/09 12:55:34;;;;;;;10.48;8.35;;;3.10;99.90;;;;;;4970408;28;20184;-62
2022/12/09 12:58:12;;;;;;;8.35;7.47;;;3.20;99.90;;;;;;4976216;28;20566;-61
2022/12/09 13:00:59;;;;;;;10.93;7.70;;;3.20;99.90;;;;;;4976027;28;20213;-61
2022/12/09 13:04:03;;;;;;;10.57;7.65;;;3.20;99.90;;;;;;4963151;28;20216;-61
2022/12/09 13:06:53;;;;;;;9.05;8.07;;;3.20;99.90;;;;;;4971828;28;20197;-60
2022/12/09 13:09:45;;;;;;;12.63;7.65;;;3.20;99.90;;;;;;4975457;28;20184;-61
2022/12/09 13:12:18;;;;;;;9.88;7.82;;;3.10;99.90;;;;;;4975862;28;20566;-60
2022/12/09 13:14:54;;;;;;;12.45;8.65;;;3.20;99.90;;;;;;4975601;28;20176;-60
2022/12/09 13:17:27;;;;;;;11.32;9.20;;;3.30;99.90;;;;;;4963766;28;20201;-60
2022/12/09 13:20:00;;;;;;;8.52;7.60;;;3.30;99.90;;;;;;4956304;28;20190;-60
2022/12/09 13:22:38;;;;;;;8.93;8.02;;;3.30;99.90;;;;;;4960903;28;20294;-60
2022/12/09 13:25:23;;;;;;;9.88;7.82;;;3.30;99.90;;;;;;4955914;29;20169;-61
2022/12/09 13:28:06;;;;;;;12.52;8.65;;;3.30;99.90;;;;;;4956257;29;20196;-62
2022/12/09 13:30:48;;;;;;;9.80;7.28;;;3.30;99.90;;;;;;4956126;29;20259;-62
2022/12/09 13:33:35;;;;;;;11.63;9.05;;;3.30;99.90;;;;;;4938975;29;20181;-63
2022/12/09 13:36:12;;;;;;;10.02;8.10;;;3.30;99.90;;;;;;4990308;28;20287;-63
2022/12/09 13:38:41;;;;;;;11.40;8.75;;;3.30;99.90;;;;;;4982340;28;20212;-62
2022/12/09 13:41:25;;;;;;;11.73;8.05;;;3.30;99.90;;;;;;4975309;28;20208;-62
2022/12/09 13:43:54;;;;;;;13.55;8.27;;;3.40;99.90;;;;;;4975277;28;20199;-62
2022/12/09 13:46:25;;;;;;;10.90;8.65;;;3.40;99.90;;;;;;4974626;28;20678;-62
2022/12/09 13:48:52;;;;;;;10.65;7.75;;;3.40;99.90;;;;;;4975098;28;20172;-62
2022/12/09 13:51:20;;;;;;;9.82;7.07;;;3.30;99.90;;;;;;4975001;28;20180;-61
2022/12/09 13:53:58;;;;;;;12.32;8.07;;;3.40;99.90;;;;;;4974865;28;20223;-62
2022/12/09 13:56:31;;;;;;;9.95;8.38;;;3.40;99.90;;;;;;4974635;28;20240;-61
2022/12/09 13:59:25;;;;;;;12.80;8.80;;;3.40;99.90;;;;;;4974975;28;20199;-61
2022/12/09 14:01:55;;;;;;;11.02;8.55;;;3.40;99.90;;;;;;4975057;28;20207;-61
2022/12/09 14:04:34;;;;;;;11.30;8.10;;;3.40;99.90;;;;;;4975023;28;20258;-61
2022/12/09 14:07:32;;;;;;;11.10;7.63;;;3.30;99.90;;;;;;4974048;28;20196;-61
2022/12/09 14:09:59;;;;;;;14.70;9.88;;;3.20;99.90;;;;;;4974701;28;20677;-60
2022/12/09 14:12:24;;;;;;;16.33;10.40;;;3.20;99.90;;;;;;4974731;28;20176;-60
2022/12/09 14:14:54;;;;;;;15.40;10.20;;;3.20;99.90;;;;;;4973890;28;20656;-61
2022/12/09 14:17:40;;;;;;;15.75;8.32;;;3.20;99.90;;;;;;4974292;28;20544;-61
2022/12/09 14:20:20;;;;;;;11.70;8.35;;;3.10;99.90;;;;;;4947026;28;20188;-60
2022/12/09 14:23:06;;;;;;;15.68;9.88;;;3.10;99.90;;;;;;4956470;28;20642;-61
2022/12/09 14:25:32;;;;;;;13.52;8.18;;;3.00;99.90;;;;;;4960379;28;20287;-61
2022/12/09 14:28:12;;;;;;;10.10;8.57;;;3.00;99.90;;;;;;4974691;28;20180;-60
2022/12/09 14:30:48;;;;;;;14.38;8.88;;;3.00;99.90;;;;;;4974680;28;20173;-60
2022/12/09 14:33:28;;;;;;;14.15;8.48;;;2.90;99.90;;;;;;4974116;28;20188;-60
2022/12/09 14:36:30;;;;;;;11.90;7.90;;;2.90;99.90;;;;;;4974103;28;20278;-60
2022/12/09 14:39:12;;;;;;;13.57;9.00;;;2.90;99.90;;;;;;4917226;28;20203;-60
2022/12/09 14:41:59;;;;;;;12.55;8.10;;;2.90;99.90;;;;;;4974376;28;20800;-60
2022/12/09 14:44:55;;;;;;;13.60;8.90;;;2.90;99.90;;;;;;4974382;28;20176;-61
2022/12/09 14:47:29;;;;;;;11.60;9.30;;;2.80;99.90;;;;;;4974522;28;20682;-60
2022/12/09 14:50:06;;;;;;;12.45;8.23;;;2.80;99.90;;;;;;4974436;28;20175;-60
2022/12/09 14:52:33;;;;;;;10.30;7.43;;;2.70;99.90;;;;;;4974340;28;20167;-61
2022/12/09 14:55:03;;;;;;;19.58;9.35;;;2.70;99.90;;;;;;4973831;28;20184;-60
2022/12/09 14:57:43;;;;;;;11.35;7.72;;;2.70;99.90;;;;;;4974115;28;20204;-60
2022/12/09 15:00:35;;;;;;;12.55;8.07;;;2.70;99.90;;;;;;4974396;28;20176;-61
2022/12/09 15:03:03;;;;;;;12.88;8.35;;;2.70;99.90;;;;;;4956895;28;20190;-60
2022/12/09 15:05:29;;;;;;;12.80;8.20;;;2.70;99.90;;;;;;4973651;28;20180;-59
2022/12/09 15:07:54;;;;;;;16.90;11.37;;;2.70;99.90;;;;;;4973710;28;20188;-60
2022/12/09 15:10:36;;;;;;;12.17;7.60;;;2.70;99.90;;;;;;4974319;28;20203;-61
2022/12/09 15:13:02;;;;;;;17.92;10.95;;;2.70;99.90;;;;;;4974147;28;20520;-61
2022/12/09 15:15:34;;;;;;;16.10;10.23;;;2.70;99.90;;;;;;4973296;28;20248;-59
2022/12/09 15:18:05;;;;;;;21.83;10.30;;;2.70;99.90;;;;;;4974170;28;20451;-59
2022/12/09 15:20:39;;;;;;;14.38;8.60;;;2.70;99.90;;;;;;4974137;28;20180;-60
2022/12/09 15:23:21;;;;;;;12.98;8.30;;;2.70;99.90;;;;;;4973975;28;20180;-59
2022/12/09 15:25:49;;;;;;;13.75;7.82;;;2.60;99.90;;;;;;4973668;28;20582;-60
2022/12/09 15:28:19;;;;;;;18.15;10.32;;;2.60;99.90;;;;;;4974013;28;20249;-59
2022/12/09 15:30:45;;;;;;;16.33;9.80;;;2.60;99.90;;;;;;4973855;28;20187;-59
2022/12/09 15:33:12;;;;;;;16.63;10.23;;;2.50;99.90;;;;;;4956633;28;20530;-61
2022/12/09 15:35:38;;;;;;;15.18;11.10;;;2.50;99.90;;;;;;4973617;28;20778;-60
2022/12/09 15:38:06;;;;;;;17.80;10.20;;;2.40;99.90;;;;;;4973641;28;20184;-60
2022/12/09 15:40:34;;;;;;;16.10;11.27;;;2.40;99.90;;;;;;4973826;28;20266;-60
2022/12/09 15:43:04;;;;;;;21.65;10.95;;;2.40;99.90;;;;;;4974000;28;20168;-61
2022/12/09 15:45:34;;;;;;;13.77;9.52;;;2.40;99.90;;;;;;4975306;28;20204;-61
2022/12/09 15:48:17;;;;;;;19.33;10.25;;;2.40;99.90;;;;;;4976526;28;20238;-60
2022/12/09 15:50:53;;;;;;;16.98;11.63;;;2.40;99.90;;;;;;4977346;28;20204;-61
2022/12/09 15:53:40;;;;;;;15.57;9.90;;;2.40;99.90;;;;;;4959885;28;20180;-59
2022/12/09 15:56:13;;;;;;;15.98;10.18;;;2.40;99.90;;;;;;4968406;28;20566;-61
2022/12/09 15:58:43;;;;;;;16.58;11.63;;;2.40;99.90;;;;;;4977067;28;20172;-63
2022/12/09 16:01:09;;;;;;;22.85;9.80;;;2.50;99.90;;;;;;4959717;28;20199;-61
2022/12/09 16:03:36;;;;;;;19.60;10.65;;;2.50;99.90;;;;;;4977226;28;20530;-60
2022/12/09 16:06:05;;;;;;;14.50;10.70;;;2.50;99.90;;;;;;4975455;28;20235;-60
2022/12/09 16:08:44;;;;;;;21.33;12.38;;;2.50;99.90;;;;;;4975948;28;20193;-62
2022/12/09 16:11:11;;;;;;;20.67;13.32;;;2.50;99.90;;;;;;4976290;28;20191;-61
2022/12/09 16:13:59;;;;;;;19.42;10.98;;;2.50;99.90;;;;;;4975706;28;20267;-62
2022/12/09 16:16:34;;;;;;;20.70;10.82;;;2.50;99.90;;;;;;4975544;28;20263;-60
2022/12/09 16:19:00;;;;;;;17.42;10.80;;;2.50;99.90;;;;;;4976966;28;20211;-59
2022/12/09 16:21:28;;;;;;;23.40;13.87;;;2.50;99.90;;;;;;4976304;28;20629;-63
2022/12/09 16:24:04;;;;;;;22.42;12.85;;;2.50;99.90;;;;;;4974805;28;20196;-61
2022/12/09 16:26:34;;;;;;;20.33;12.48;;;2.40;99.90;;;;;;4973691;28;20724;-61
2022/12/09 16:29:06;;;;;;;16.83;11.88;;;2.50;99.90;;;;;;4972724;28;20250;-60
2022/12/09 16:31:32;;;;;;;17.00;10.40;;;2.50;99.90;;;;;;4973921;28;20203;-62
2022/12/09 16:33:58;;;;;;;20.27;13.85;;;2.50;99.90;;;;;;4968881;28;20210;-60
2022/12/09 16:36:29;;;;;;;22.17;14.30;;;2.50;99.90;;;;;;4973675;28;20228;-60
2022/12/09 16:39:23;;;;;;;18.92;11.05;;;2.50;99.90;;;;;;4974813;28;20589;-61
2022/12/09 16:41:52;;;;;;;23.88;13.10;;;2.60;99.90;;;;;;4976071;28;20211;-63
2022/12/09 16:44:33;;;;;;;18.67;11.57;;;2.60;99.90;;;;;;4975712;28;20184;-62
2022/12/09 16:47:21;;;;;;;18.02;11.15;;;2.70;99.90;;;;;;4975529;28;20207;-64
2022/12/09 16:49:48;;;;;;;17.63;11.88;;;2.70;99.90;;;;;;4975459;28;20190;-62
2022/12/09 16:52:20;;;;;;;20.80;13.10;;;2.80;99.90;;;;;;4975572;28;20188;-64
2022/12/09 16:54:47;;;;;;;21.08;13.13;;;2.80;99.90;;;;;;4975292;28;20192;-62
2022/12/09 16:57:16;;;;;;;17.60;11.93;;;2.80;99.90;;;;;;4975701;28;20292;-61
2022/12/09 16:59:42;;;;;;;20.75;12.80;;;2.80;99.90;;;;;;4975904;28;20249;-62
2022/12/09 17:02:37;;;;;;;16.33;13.10;;;2.70;99.90;;;;;;4975379;28;20214;-63
2022/12/09 17:05:03;;;;;;;26.45;13.82;;;2.70;99.90;;;;;;4968061;28;20415;-62
2022/12/09 17:07:29;;;;;;;22.60;12.17;;;2.70;99.90;;;;;;4975198;28;20252;-62
2022/12/09 17:09:54;;;;;;;22.23;12.53;;;2.70;99.90;;;;;;4975632;28;20399;-61
2022/12/09 17:12:20;;;;;;;18.93;11.77;;;2.70;99.90;;;;;;4975679;28;20215;-61
2022/12/09 17:14:46;;;;;;;19.57;12.80;;;2.70;99.90;;;;;;4974903;28;20779;-60
2022/12/09 17:17:11;;;;;;;19.83;12.53;;;2.70;99.90;;;;;;4975079;28;20202;-63
2022/12/09 17:19:40;;;;;;;20.57;11.63;;;2.80;99.90;;;;;;4975645;28;20179;-62
2022/12/09 17:22:05;;;;;;;20.15;11.20;;;2.80;99.90;;;;;;4975323;28;20254;-61
2022/12/09 17:24:31;;;;;;;21.77;13.83;;;2.80;99.90;;;;;;4974982;28;20188;-63
2022/12/09 17:26:56;;;;;;;20.83;11.73;;;2.80;99.90;;;;;;4974798;28;20196;-61
2022/12/09 17:29:22;;;;;;;25.87;14.87;;;2.80;99.90;;;;;;4975318;28;20259;-61
2022/12/09 17:31:50;;;;;;;27.70;14.60;;;2.80;99.90;;;;;;4975383;28;20597;-60
2022/12/09 17:34:16;;;;;;;29.88;16.83;;;2.80;99.90;;;;;;4974883;28;20284;-61
2022/12/09 17:36:42;;;;;;;19.17;12.20;;;2.80;99.90;;;;;;4974634;28;20235;-61
2022/12/09 17:39:11;;;;;;;21.83;14.60;;;2.80;99.90;;;;;;4975350;28;20420;-63
2022/12/09 17:41:37;;;;;;;23.95;14.43;;;2.80;99.90;;;;;;4975180;28;20540;-62
2022/12/09 17:44:03;;;;;;;23.05;14.02;;;2.80;99.90;;;;;;4974551;28;20192;-61
2022/12/09 17:46:28;;;;;;;19.20;13.43;;;2.80;99.90;;;;;;4973803;28;20215;-63
2022/12/09 17:48:54;;;;;;;20.47;10.87;;;2.80;99.90;;;;;;4974625;28;20180;-62
2022/12/09 17:51:20;;;;;;;21.00;12.13;;;2.80;99.90;;;;;;4974900;28;20270;-61
2022/12/09 17:53:46;;;;;;;18.50;11.57;;;2.80;99.90;;;;;;4974689;28;20268;-61
2022/12/09 17:56:19;;;;;;;20.55;12.65;;;2.80;99.90;;;;;;4974461;28;20606;-61
2022/12/09 17:58:46;;;;;;;22.95;13.20;;;2.70;99.90;;;;;;4974951;28;20195;-61
2022/12/09 18:01:16;;;;;;;21.98;12.70;;;2.70;99.90;;;;;;4974716;28;20208;-61
2022/12/09 18:03:42;;;;;;;19.27;12.63;;;2.70;99.90;;;;;;4974330;28;20230;-61
2022/12/09 18:06:08;;;;;;;16.30;11.90;;;2.70;99.90;;;;;;4974673;28;20275;-62
2022/12/09 18:08:34;;;;;;;23.88;12.55;;;2.70;99.90;;;;;;4974359;28;20274;-61
2022/12/09 18:11:08;;;;;;;23.40;12.63;;;2.80;99.90;;;;;;4974123;28;20191;-62
2022/12/09 18:13:34;;;;;;;22.73;12.90;;;2.80;99.90;;;;;;4974079;28;20177;-62
2022/12/09 18:16:00;;;;;;;18.75;11.85;;;2.80;99.90;;;;;;4974557;28;20219;-61
2022/12/09 18:18:29;;;;;;;23.67;15.60;;;2.80;99.90;;;;;;4974705;28;20176;-60
2022/12/09 18:20:59;;;;;;;28.95;15.13;;;2.80;99.90;;;;;;4974252;28;20298;-64
2022/12/09 18:23:24;;;;;;;24.65;15.63;;;2.80;99.90;;;;;;4974867;28;20173;-62